Time;durP1;ratioP1;P1;durP2;ratioP2;P2;SDS_P1;SDS_P2;PMS_P1;PMS_P2;Temp;Humidity;BMP_temperature;BMP_pressure;BME280_temperature;BME280_humidity;BME280_pressure;Samples;Min_cycle;Max_cycle;Signal;HPM_P1;HPM_P2
2022/04/10 00:01:08;;;;;;;9.15;5.03;;;;;;;;;;6144984;23;20017;-46
2022/04/10 00:03:33;;;;;;;12.40;4.78;;;;;;;;;;6140614;23;20018;-48
2022/04/10 00:05:58;;;;;;;8.07;5.05;;;;;;;;;;6145012;23;20013;-47
2022/04/10 00:08:24;;;;;;;11.80;4.22;;;;;;;;;;6142389;23;20021;-46
2022/04/10 00:10:49;;;;;;;14.82;5.07;;;;;;;;;;6145407;23;20889;-46
2022/04/10 00:13:15;;;;;;;13.95;5.55;;;;;;;;;;6141784;23;20021;-50
2022/04/10 00:15:40;;;;;;;14.25;6.15;;;;;;;;;;6145471;23;20048;-48
2022/04/10 00:18:06;;;;;;;14.55;4.30;;;;;;;;;;6141387;23;20017;-48
2022/04/10 00:20:31;;;;;;;9.23;4.80;;;;;;;;;;6144243;23;20142;-47
2022/04/10 00:22:56;;;;;;;12.38;5.22;;;;;;;;;;6143879;23;20520;-46
2022/04/10 00:25:21;;;;;;;17.40;7.55;;;;;;;;;;6144396;23;20100;-48
2022/04/10 00:27:47;;;;;;;14.35;4.40;;;;;;;;;;6143482;23;20010;-47
2022/04/10 00:30:13;;;;;;;12.85;5.13;;;;;;;;;;6143840;23;20120;-48
2022/04/10 00:32:39;;;;;;;9.40;4.75;;;;;;;;;;6143170;23;20024;-48
2022/04/10 00:35:05;;;;;;;19.70;5.03;;;;;;;;;;6145427;23;20037;-47
2022/04/10 00:37:31;;;;;;;11.57;4.38;;;;;;;;;;6142557;23;20020;-48
2022/04/10 00:39:56;;;;;;;9.50;4.13;;;;;;;;;;6145508;23;20009;-46
2022/04/10 00:42:22;;;;;;;18.92;4.97;;;;;;;;;;6141231;23;20024;-46
2022/04/10 00:44:47;;;;;;;12.02;4.18;;;;;;;;;;6144547;23;20022;-46
2022/04/10 00:47:13;;;;;;;14.65;5.30;;;;;;;;;;6142421;23;20019;-48
2022/04/10 00:49:38;;;;;;;10.68;4.45;;;;;;;;;;6146060;23;20010;-46
2022/04/10 00:52:06;;;;;;;9.20;4.47;;;;;;;;;;6143251;23;20017;-48
2022/04/10 00:54:32;;;;;;;8.13;4.18;;;;;;;;;;6144072;23;20040;-47
2022/04/10 00:57:00;;;;;;;9.25;4.38;;;;;;;;;;6142732;23;20009;-47
2022/04/10 00:59:26;;;;;;;9.98;4.20;;;;;;;;;;6143087;23;20044;-48
2022/04/10 01:01:51;;;;;;;15.95;6.43;;;;;;;;;;6142436;23;20108;-46
2022/04/10 01:04:16;;;;;;;15.48;5.35;;;;;;;;;;6143514;23;20053;-46
2022/04/10 01:06:43;;;;;;;7.50;4.95;;;;;;;;;;6138859;23;20079;-47
2022/04/10 01:09:08;;;;;;;6.95;3.85;;;;;;;;;;6142529;23;20088;-48
2022/04/10 01:11:34;;;;;;;16.00;6.63;;;;;;;;;;6142228;23;20021;-48
2022/04/10 01:14:00;;;;;;;15.32;4.43;;;;;;;;;;6145238;23;20033;-46
2022/04/10 01:16:26;;;;;;;9.52;4.72;;;;;;;;;;6144648;23;20037;-46
2022/04/10 01:18:54;;;;;;;8.55;4.47;;;;;;;;;;6145480;23;20025;-48
2022/04/10 01:21:27;;;;;;;16.77;5.65;;;;;;;;;;6143013;23;20083;-49
2022/04/10 01:23:52;;;;;;;9.90;4.63;;;;;;;;;;6146013;23;20053;-48
2022/04/10 01:26:18;;;;;;;10.07;5.10;;;;;;;;;;6143726;23;20013;-47
2022/04/10 01:28:55;;;;;;;9.48;4.93;;;;;;;;;;6146479;23;20017;-48
2022/04/10 01:31:20;;;;;;;10.93;4.47;;;;;;;;;;6142994;23;20029;-46
2022/04/10 01:33:46;;;;;;;13.73;6.43;;;;;;;;;;6145893;23;20016;-47
2022/04/10 01:36:11;;;;;;;11.60;5.15;;;;;;;;;;6141958;23;20093;-47
2022/04/10 01:38:37;;;;;;;15.18;5.80;;;;;;;;;;6146082;23;20017;-47
2022/04/10 01:41:02;;;;;;;14.68;4.90;;;;;;;;;;6143734;23;20020;-48
2022/04/10 01:43:28;;;;;;;8.10;4.55;;;;;;;;;;6146186;23;20037;-45
2022/04/10 01:45:53;;;;;;;9.18;4.72;;;;;;;;;;6143543;23;20039;-47
2022/04/10 01:48:18;;;;;;;13.20;4.75;;;;;;;;;;6145950;23;20025;-47
2022/04/10 01:50:44;;;;;;;9.23;4.57;;;;;;;;;;6143495;23;20014;-47
2022/04/10 01:53:09;;;;;;;14.23;4.40;;;;;;;;;;6145841;23;20704;-46
2022/04/10 01:55:35;;;;;;;9.75;5.25;;;;;;;;;;6141954;23;20045;-50
2022/04/10 01:58:00;;;;;;;9.43;5.03;;;;;;;;;;6145285;23;20006;-47
2022/04/10 02:00:25;;;;;;;10.40;4.88;;;;;;;;;;6142357;23;20060;-46
2022/04/10 02:02:50;;;;;;;7.60;4.95;;;;;;;;;;6145014;23;20009;-47
2022/04/10 02:05:16;;;;;;;14.60;6.05;;;;;;;;;;6143133;23;20024;-46
2022/04/10 02:07:41;;;;;;;8.45;4.57;;;;;;;;;;6146709;23;20537;-46
2022/04/10 02:10:06;;;;;;;14.68;5.07;;;;;;;;;;6143002;23;20008;-48
2022/04/10 02:12:33;;;;;;;10.15;4.32;;;;;;;;;;6144908;23;20020;-47
2022/04/10 02:14:59;;;;;;;10.80;5.55;;;;;;;;;;6143498;23;20009;-50
2022/04/10 02:17:25;;;;;;;9.57;4.88;;;;;;;;;;6144439;23;20017;-49
2022/04/10 02:19:50;;;;;;;15.77;5.53;;;;;;;;;;6143172;23;20399;-50
2022/04/10 02:22:15;;;;;;;10.15;5.32;;;;;;;;;;6145233;23;20073;-46
2022/04/10 02:24:40;;;;;;;7.90;4.32;;;;;;;;;;6142938;23;20028;-50
2022/04/10 02:27:06;;;;;;;7.47;4.35;;;;;;;;;;6168265;23;20013;-49
2022/04/10 02:29:31;;;;;;;9.30;4.55;;;;;;;;;;6143527;23;20542;-47
2022/04/10 02:31:56;;;;;;;9.20;5.45;;;;;;;;;;6145400;23;19998;-47
2022/04/10 02:34:21;;;;;;;11.20;4.97;;;;;;;;;;6142820;23;20068;-46
2022/04/10 02:36:47;;;;;;;11.77;4.90;;;;;;;;;;6145300;23;20005;-47
2022/04/10 02:39:12;;;;;;;13.63;4.85;;;;;;;;;;6142857;23;20018;-53
2022/04/10 02:41:37;;;;;;;12.07;4.90;;;;;;;;;;6139198;23;20064;-45
2022/04/10 02:44:03;;;;;;;14.35;4.43;;;;;;;;;;6144184;23;20041;-47
2022/04/10 02:46:28;;;;;;;12.00;5.47;;;;;;;;;;6144271;23;20020;-46
2022/04/10 02:51:28;;;;;;;10.23;4.35;;;;;;;;;;6085197;23;20030;-45
2022/04/10 02:53:54;;;;;;;11.18;4.60;;;;;;;;;;6104051;23;20076;-45
2022/04/10 02:56:19;;;;;;;7.80;4.22;;;;;;;;;;6107441;23;20014;-46
2022/04/10 02:58:44;;;;;;;9.15;4.57;;;;;;;;;;6108771;23;20018;-48
2022/04/10 03:01:09;;;;;;;12.15;4.88;;;;;;;;;;6107543;23;20013;-47
2022/04/10 03:03:35;;;;;;;9.45;4.85;;;;;;;;;;6107232;23;20033;-47
2022/04/10 03:06:00;;;;;;;13.60;5.07;;;;;;;;;;6108752;23;20017;-47
2022/04/10 03:08:25;;;;;;;9.98;5.63;;;;;;;;;;6106844;23;20029;-45
2022/04/10 03:10:50;;;;;;;6.90;4.93;;;;;;;;;;6118092;23;20631;-46
2022/04/10 03:13:16;;;;;;;13.75;4.90;;;;;;;;;;6117953;23;20344;-50
2022/04/10 03:15:41;;;;;;;13.25;5.70;;;;;;;;;;6118667;23;20351;-46
2022/04/10 03:18:06;;;;;;;8.50;5.25;;;;;;;;;;6119333;23;20749;-45
2022/04/10 03:20:32;;;;;;;8.85;5.00;;;;;;;;;;6100140;23;20835;-49
2022/04/10 03:22:57;;;;;;;12.27;5.70;;;;;;;;;;6117710;23;20021;-47
2022/04/10 03:25:23;;;;;;;11.85;5.35;;;;;;;;;;6113615;23;20030;-46
2022/04/10 03:27:48;;;;;;;8.90;4.22;;;;;;;;;;6114434;23;20010;-47
2022/04/10 03:30:13;;;;;;;12.80;5.13;;;;;;;;;;6114730;23;20018;-47
2022/04/10 03:32:40;;;;;;;10.40;4.53;;;;;;;;;;6115111;23;20010;-47
2022/04/10 03:35:06;;;;;;;12.85;4.97;;;;;;;;;;6114162;23;20384;-49
2022/04/10 03:37:31;;;;;;;10.80;4.63;;;;;;;;;;6115223;23;20022;-46
2022/04/10 03:39:56;;;;;;;16.00;5.93;;;;;;;;;;6114118;23;20010;-48
2022/04/10 03:42:21;;;;;;;9.00;4.53;;;;;;;;;;6115664;23;20034;-50
2022/04/10 03:44:47;;;;;;;11.90;5.20;;;;;;;;;;6113723;23;20053;-48
2022/04/10 03:47:12;;;;;;;9.02;5.10;;;;;;;;;;6115926;23;20032;-52
2022/04/10 03:49:37;;;;;;;13.40;6.03;;;;;;;;;;6116084;23;20038;-46
2022/04/10 03:52:03;;;;;;;11.80;4.82;;;;;;;;;;6144773;23;20097;-48
2022/04/10 03:54:28;;;;;;;8.82;5.03;;;;;;;;;;6142247;23;20021;-48
2022/04/10 03:56:53;;;;;;;12.48;4.90;;;;;;;;;;6142457;23;20037;-50
2022/04/10 03:59:18;;;;;;;10.18;5.05;;;;;;;;;;6144918;23;20599;-47
2022/04/10 04:01:44;;;;;;;12.55;6.03;;;;;;;;;;6141372;23;20010;-47
2022/04/10 04:04:09;;;;;;;11.32;4.50;;;;;;;;;;6144048;23;20029;-49
2022/04/10 04:06:34;;;;;;;18.95;5.47;;;;;;;;;;6143903;23;20065;-50
2022/04/10 04:08:59;;;;;;;11.02;4.70;;;;;;;;;;6143691;23;20017;-46
2022/04/10 04:11:25;;;;;;;15.80;5.25;;;;;;;;;;6144055;23;20041;-45
2022/04/10 04:13:50;;;;;;;8.65;5.10;;;;;;;;;;6143845;23;20021;-45
2022/04/10 04:16:15;;;;;;;12.80;6.53;;;;;;;;;;6143438;23;20471;-46
2022/04/10 04:18:41;;;;;;;32.90;7.45;;;;;;;;;;6143429;23;20244;-46
2022/04/10 04:21:06;;;;;;;14.45;4.65;;;;;;;;;;6145353;23;20064;-46
2022/04/10 04:23:31;;;;;;;11.18;5.38;;;;;;;;;;6143593;23;20021;-46
2022/04/10 04:25:56;;;;;;;12.15;5.07;;;;;;;;;;6144359;23;20006;-46
2022/04/10 04:28:21;;;;;;;10.05;6.10;;;;;;;;;;6143611;23;20026;-47
2022/04/10 04:30:47;;;;;;;13.07;5.50;;;;;;;;;;6145168;23;20029;-47
2022/04/10 04:33:12;;;;;;;11.73;5.82;;;;;;;;;;6141741;23;20018;-46
2022/04/10 04:35:37;;;;;;;10.38;5.93;;;;;;;;;;6144810;23;20417;-46
2022/04/10 04:38:03;;;;;;;13.88;6.30;;;;;;;;;;6142681;23;20010;-45
2022/04/10 04:40:28;;;;;;;14.25;5.40;;;;;;;;;;6144070;23;20014;-45
2022/04/10 04:42:53;;;;;;;15.13;5.35;;;;;;;;;;6143154;23;20032;-48
2022/04/10 04:45:19;;;;;;;7.57;4.85;;;;;;;;;;6143967;23;20049;-45
2022/04/10 04:47:44;;;;;;;18.00;5.35;;;;;;;;;;6143107;23;20013;-45
2022/04/10 04:50:10;;;;;;;19.30;5.55;;;;;;;;;;6146702;23;20029;-47
2022/04/10 04:52:35;;;;;;;10.50;5.30;;;;;;;;;;6144280;23;20020;-47
2022/04/10 04:55:00;;;;;;;13.80;5.50;;;;;;;;;;6147110;23;20097;-46
2022/04/10 04:57:26;;;;;;;12.55;5.72;;;;;;;;;;6144794;23;20024;-49
2022/04/10 04:59:51;;;;;;;9.38;5.55;;;;;;;;;;6146660;23;20092;-46
2022/04/10 05:02:16;;;;;;;13.43;7.38;;;;;;;;;;6144492;23;20017;-47
2022/04/10 05:04:41;;;;;;;10.10;5.93;;;;;;;;;;6147137;23;20017;-45
2022/04/10 05:07:07;;;;;;;9.13;4.93;;;;;;;;;;6143765;23;20037;-48
2022/04/10 05:09:32;;;;;;;13.57;5.97;;;;;;;;;;6144636;23;20021;-47
2022/04/10 05:11:57;;;;;;;12.55;6.07;;;;;;;;;;6144357;23;20351;-45
2022/04/10 05:14:22;;;;;;;10.77;5.13;;;;;;;;;;6146204;23;20024;-47
2022/04/10 05:16:48;;;;;;;11.38;5.50;;;;;;;;;;6145577;23;20080;-47
2022/04/10 05:19:14;;;;;;;15.20;5.07;;;;;;;;;;6146474;23;20183;-48
2022/04/10 05:21:39;;;;;;;11.30;5.70;;;;;;;;;;6145289;23;20020;-48
2022/04/10 05:24:05;;;;;;;15.73;5.57;;;;;;;;;;6145556;23;20041;-47
2022/04/10 05:26:30;;;;;;;26.80;5.60;;;;;;;;;;6144401;23;20021;-46
2022/04/10 05:28:55;;;;;;;14.02;4.45;;;;;;;;;;6121093;23;20762;-47
2022/04/10 05:31:21;;;;;;;10.02;5.00;;;;;;;;;;6141524;23;20010;-49
2022/04/10 05:33:46;;;;;;;15.50;5.45;;;;;;;;;;6120321;23;20017;-48
2022/04/10 05:36:11;;;;;;;20.13;6.28;;;;;;;;;;6144214;23;20065;-49
2022/04/10 05:38:37;;;;;;;10.98;4.95;;;;;;;;;;6145414;23;20029;-47
2022/04/10 05:41:02;;;;;;;15.70;5.50;;;;;;;;;;6143934;23;20005;-49
2022/04/10 05:43:29;;;;;;;12.18;5.60;;;;;;;;;;6146211;23;20017;-46
2022/04/10 05:45:54;;;;;;;11.13;5.75;;;;;;;;;;6144763;23;20065;-46
2022/04/10 05:48:20;;;;;;;12.27;5.43;;;;;;;;;;6119907;23;20024;-48
2022/04/10 05:50:45;;;;;;;9.25;5.57;;;;;;;;;;6143412;23;20415;-48
2022/04/10 05:53:10;;;;;;;11.23;6.70;;;;;;;;;;6145273;23;20014;-49
2022/04/10 05:55:35;;;;;;;12.05;6.00;;;;;;;;;;6141832;23;20017;-49
2022/04/10 05:58:01;;;;;;;14.00;6.35;;;;;;;;;;6147131;23;20014;-46
2022/04/10 06:00:26;;;;;;;19.08;7.55;;;;;;;;;;6143411;23;20149;-48
2022/04/10 06:02:52;;;;;;;11.23;6.03;;;;;;;;;;6146638;23;20616;-48
2022/04/10 06:05:17;;;;;;;15.13;6.85;;;;;;;;;;6144797;23;20444;-50
2022/04/10 06:07:43;;;;;;;15.38;7.32;;;;;;;;;;6119549;23;20044;-46
2022/04/10 06:10:08;;;;;;;13.43;6.65;;;;;;;;;;6145522;23;20017;-47
2022/04/10 06:12:33;;;;;;;12.25;6.25;;;;;;;;;;6144096;23;20009;-47
2022/04/10 06:14:59;;;;;;;15.68;6.47;;;;;;;;;;6144109;23;20073;-46
2022/04/10 06:17:24;;;;;;;12.63;6.22;;;;;;;;;;6144548;23;20013;-48
2022/04/10 06:19:49;;;;;;;13.25;6.60;;;;;;;;;;6145176;23;20048;-50
2022/04/10 06:22:15;;;;;;;14.43;6.88;;;;;;;;;;6143648;23;20033;-49
2022/04/10 06:24:40;;;;;;;12.07;7.35;;;;;;;;;;6145215;23;20013;-50
2022/04/10 06:27:06;;;;;;;19.90;7.15;;;;;;;;;;6144808;23;20025;-50
2022/04/10 06:29:31;;;;;;;20.48;8.02;;;;;;;;;;6144906;23;20025;-48
2022/04/10 06:31:56;;;;;;;17.10;6.53;;;;;;;;;;6144756;23;20009;-47
2022/04/10 06:34:21;;;;;;;33.90;8.70;;;;;;;;;;6142335;23;20089;-48
2022/04/10 06:36:47;;;;;;;15.10;7.95;;;;;;;;;;6145151;23;20065;-46
2022/04/10 06:39:12;;;;;;;19.08;9.93;;;;;;;;;;6143366;23;20037;-48
2022/04/10 06:41:38;;;;;;;11.98;6.00;;;;;;;;;;6144968;23;20064;-47
2022/04/10 06:44:03;;;;;;;20.60;7.28;;;;;;;;;;6117805;23;20029;-50
2022/04/10 06:46:28;;;;;;;11.15;6.70;;;;;;;;;;6142018;23;20078;-49
2022/04/10 06:48:54;;;;;;;25.10;9.13;;;;;;;;;;6145676;23;20066;-49
2022/04/10 06:51:21;;;;;;;16.13;8.10;;;;;;;;;;6142979;23;20040;-48
2022/04/10 06:53:47;;;;;;;13.55;7.78;;;;;;;;;;6144986;23;20009;-47
2022/04/10 06:56:12;;;;;;;17.10;8.32;;;;;;;;;;6142265;23;20029;-52
2022/04/10 06:58:37;;;;;;;11.18;7.55;;;;;;;;;;6145662;23;20013;-46
2022/04/10 07:01:03;;;;;;;13.30;7.10;;;;;;;;;;6114755;23;20009;-48
2022/04/10 07:03:28;;;;;;;17.10;7.50;;;;;;;;;;6145274;23;20045;-49
2022/04/10 07:05:53;;;;;;;23.17;7.93;;;;;;;;;;6143599;23;20029;-46
2022/04/10 07:08:19;;;;;;;13.23;7.20;;;;;;;;;;6145011;23;20014;-45
2022/04/10 07:10:44;;;;;;;17.52;6.97;;;;;;;;;;6142883;23;20021;-47
2022/04/10 07:13:10;;;;;;;16.20;8.00;;;;;;;;;;6142615;23;20071;-49
2022/04/10 07:15:37;;;;;;;18.45;7.75;;;;;;;;;;6138179;23;20013;-48
2022/04/10 07:18:02;;;;;;;16.52;5.93;;;;;;;;;;6139758;23;20014;-48
2022/04/10 07:20:27;;;;;;;14.40;7.28;;;;;;;;;;6140446;23;20029;-46
2022/04/10 07:25:37;;;;;;;20.10;8.00;;;;;;;;;;6141067;23;20028;-49
2022/04/10 07:28:02;;;;;;;18.45;7.45;;;;;;;;;;6139687;23;20005;-48
2022/04/10 07:30:27;;;;;;;13.85;6.47;;;;;;;;;;6141298;23;20013;-48
2022/04/10 07:32:54;;;;;;;14.80;7.47;;;;;;;;;;6138538;23;20083;-47
2022/04/10 07:35:19;;;;;;;10.50;5.85;;;;;;;;;;6141110;23;20499;-47
2022/04/10 07:37:45;;;;;;;16.95;6.75;;;;;;;;;;6113326;23;20024;-48
2022/04/10 07:40:11;;;;;;;15.65;7.55;;;;;;;;;;6141215;23;20009;-49
2022/04/10 07:42:40;;;;;;;12.13;6.60;;;;;;;;;;6138121;23;20018;-45
2022/04/10 07:45:05;;;;;;;17.92;6.05;;;;;;;;;;6142085;23;20026;-45
2022/04/10 07:47:31;;;;;;;18.92;6.85;;;;;;;;;;6134923;23;20036;-45
2022/04/10 07:49:56;;;;;;;11.07;5.18;;;;;;;;;;6141307;23;20021;-45
2022/04/10 07:52:22;;;;;;;15.70;5.40;;;;;;;;;;6137458;23;20021;-47
2022/04/10 07:54:48;;;;;;;16.25;6.45;;;;;;;;;;6140067;23;20020;-49
2022/04/10 07:57:13;;;;;;;13.68;6.03;;;;;;;;;;6139447;23;20017;-46
2022/04/10 07:59:38;;;;;;;23.70;6.38;;;;;;;;;;6141262;23;20095;-48
2022/04/10 08:02:04;;;;;;;11.35;4.75;;;;;;;;;;6112828;23;20033;-46
2022/04/10 08:04:29;;;;;;;6.10;4.10;;;;;;;;;;6141520;23;20060;-47
2022/04/10 08:06:55;;;;;;;9.70;4.80;;;;;;;;;;6140935;23;20486;-49
2022/04/10 08:09:20;;;;;;;16.02;4.68;;;;;;;;;;6138688;23;20300;-47
2022/04/10 08:11:46;;;;;;;5.78;3.88;;;;;;;;;;6138648;23;20002;-48
2022/04/10 08:14:11;;;;;;;12.88;4.05;;;;;;;;;;6140619;23;20014;-49
2022/04/10 08:16:36;;;;;;;8.32;4.70;;;;;;;;;;6138947;23;20048;-47
2022/04/10 08:19:02;;;;;;;9.65;3.45;;;;;;;;;;6140809;23;20033;-49
2022/04/10 08:21:27;;;;;;;9.23;4.03;;;;;;;;;;6140505;23;20069;-46
2022/04/10 08:23:53;;;;;;;7.60;2.80;;;;;;;;;;6139843;23;20076;-49
2022/04/10 08:26:18;;;;;;;9.23;3.75;;;;;;;;;;6139184;23;20017;-46
2022/04/10 08:28:43;;;;;;;8.93;3.85;;;;;;;;;;6140019;23;20539;-50
2022/04/10 08:31:09;;;;;;;9.15;3.92;;;;;;;;;;6139674;23;20010;-46
2022/04/10 08:33:34;;;;;;;7.47;3.22;;;;;;;;;;6138614;23;20010;-47
2022/04/10 08:35:59;;;;;;;10.45;3.55;;;;;;;;;;6139349;23;20022;-48
2022/04/10 08:38:24;;;;;;;16.98;3.63;;;;;;;;;;6138725;23;20055;-45
2022/04/10 08:40:54;;;;;;;11.55;2.90;;;;;;;;;;6112669;23;20009;-51
2022/04/10 08:43:19;;;;;;;8.73;3.30;;;;;;;;;;6140023;23;20029;-49
2022/04/10 08:45:45;;;;;;;10.10;2.83;;;;;;;;;;6140912;23;20175;-46
2022/04/10 08:48:11;;;;;;;9.48;3.30;;;;;;;;;;6140115;23;20141;-51
2022/04/10 08:50:37;;;;;;;9.00;3.35;;;;;;;;;;6126075;23;20033;-49
2022/04/10 08:53:03;;;;;;;6.50;3.00;;;;;;;;;;6139246;23;20009;-47
2022/04/10 08:55:29;;;;;;;6.07;3.03;;;;;;;;;;6140610;23;20024;-46
2022/04/10 08:57:54;;;;;;;8.05;2.90;;;;;;;;;;6140046;23;20010;-48
2022/04/10 09:00:20;;;;;;;8.00;2.33;;;;;;;;;;6139407;23;20745;-48
2022/04/10 09:02:46;;;;;;;9.57;2.80;;;;;;;;;;6139296;23;20025;-47
2022/04/10 09:05:15;;;;;;;8.93;2.38;;;;;;;;;;6141854;23;20599;-47
2022/04/10 09:07:40;;;;;;;14.17;2.00;;;;;;;;;;6139925;23;20032;-47
2022/04/10 09:10:06;;;;;;;2.92;1.85;;;;;;;;;;6139247;23;20116;-50
2022/04/10 09:12:31;;;;;;;2.88;1.48;;;;;;;;;;6139379;23;20013;-46
2022/04/10 09:15:03;;;;;;;3.05;1.40;;;;;;;;;;6139519;23;20357;-48
2022/04/10 09:17:29;;;;;;;9.60;1.80;;;;;;;;;;6140653;23;20345;-49
2022/04/10 09:19:55;;;;;;;5.03;1.58;;;;;;;;;;6136900;23;20021;-48
2022/04/10 09:22:21;;;;;;;5.50;1.80;;;;;;;;;;6140942;23;20026;-49
2022/04/10 09:25:02;;;;;;;8.73;2.00;;;;;;;;;;6139647;23;20565;-50
2022/04/10 09:27:34;;;;;;;4.10;1.80;;;;;;;;;;6138966;23;20018;-49
2022/04/10 09:30:00;;;;;;;6.43;1.63;;;;;;;;;;6137556;23;20194;-47
2022/04/10 09:32:38;;;;;;;6.55;1.50;;;;;;;;;;6139564;23;20440;-45
2022/04/10 09:35:03;;;;;;;3.65;1.52;;;;;;;;;;6141806;23;20013;-47
2022/04/10 09:37:32;;;;;;;2.45;1.05;;;;;;;;;;6139659;23;20032;-47
2022/04/10 09:40:17;;;;;;;7.93;2.05;;;;;;;;;;6140874;23;20013;-49
2022/04/10 09:42:43;;;;;;;3.30;1.10;;;;;;;;;;6145535;23;20058;-46
2022/04/10 09:45:25;;;;;;;2.85;1.70;;;;;;;;;;6142485;23;20018;-50
2022/04/10 09:47:51;;;;;;;5.88;1.70;;;;;;;;;;6138117;23;20037;-50
2022/04/10 09:50:16;;;;;;;7.93;1.55;;;;;;;;;;6139913;23;20053;-48
2022/04/10 09:52:41;;;;;;;2.33;1.45;;;;;;;;;;6138651;23;20002;-45
2022/04/10 09:55:08;;;;;;;4.15;1.45;;;;;;;;;;6142836;23;20006;-49
2022/04/10 09:57:34;;;;;;;5.57;1.55;;;;;;;;;;6132387;23;20013;-47
2022/04/10 10:00:01;;;;;;;2.05;1.38;;;;;;;;;;6134321;23;20065;-47
2022/04/10 10:02:28;;;;;;;1.95;1.25;;;;;;;;;;6133752;23;20053;-47
2022/04/10 10:04:56;;;;;;;4.03;1.67;;;;;;;;;;6133382;23;20026;-47
2022/04/10 10:07:21;;;;;;;3.33;1.77;;;;;;;;;;6133979;23;20390;-45
2022/04/10 10:09:48;;;;;;;4.32;1.35;;;;;;;;;;6134555;23;20768;-48
2022/04/10 10:12:13;;;;;;;7.85;1.48;;;;;;;;;;6133102;23;20024;-47
2022/04/10 10:14:39;;;;;;;4.45;2.33;;;;;;;;;;6133572;23;20009;-49
2022/04/10 10:17:05;;;;;;;5.57;2.00;;;;;;;;;;6134436;23;20096;-49
2022/04/10 10:19:35;;;;;;;3.60;1.73;;;;;;;;;;6139090;23;20093;-46
2022/04/10 10:22:01;;;;;;;6.00;1.77;;;;;;;;;;6142482;23;20092;-48
2022/04/10 10:24:29;;;;;;;3.63;1.38;;;;;;;;;;6143547;23;20029;-49
2022/04/10 10:27:10;;;;;;;3.58;2.20;;;;;;;;;;6137463;23;20009;-49
2022/04/10 10:29:53;;;;;;;6.50;1.02;;;;;;;;;;6140418;23;20009;-47
2022/04/10 10:32:45;;;;;;;4.85;1.95;;;;;;;;;;6141948;23;20024;-46
2022/04/10 10:35:26;;;;;;;4.30;1.52;;;;;;;;;;6141510;23;20211;-47
2022/04/10 10:37:53;;;;;;;3.30;1.48;;;;;;;;;;6140489;23;20005;-46
2022/04/10 10:40:19;;;;;;;4.45;1.83;;;;;;;;;;6143857;23;20022;-47
2022/04/10 10:42:45;;;;;;;6.75;1.92;;;;;;;;;;6142897;23;20036;-47
2022/04/10 10:45:11;;;;;;;6.65;1.25;;;;;;;;;;6145235;23;20419;-50
2022/04/10 10:47:36;;;;;;;5.50;1.52;;;;;;;;;;6141338;23;20009;-49
2022/04/10 10:50:22;;;;;;;4.60;1.50;;;;;;;;;;6145512;23;20129;-48
2022/04/10 10:53:03;;;;;;;7.05;1.60;;;;;;;;;;6142838;23;20021;-47
2022/04/10 10:55:42;;;;;;;10.80;2.33;;;;;;;;;;6143161;23;20021;-49
2022/04/10 10:58:07;;;;;;;4.70;1.42;;;;;;;;;;6145874;23;20006;-46
2022/04/10 11:00:36;;;;;;;12.23;2.03;;;;;;;;;;6142502;23;20526;-49
2022/04/10 11:03:07;;;;;;;4.95;1.45;;;;;;;;;;6145624;23;20010;-49
2022/04/10 11:05:35;;;;;;;7.95;1.92;;;;;;;;;;6143436;23;20022;-46
2022/04/10 11:08:02;;;;;;;4.90;1.73;;;;;;;;;;6145681;23;20018;-47
2022/04/10 11:10:29;;;;;;;4.53;1.55;;;;;;;;;;6165701;23;20020;-47
2022/04/10 11:12:59;;;;;;;4.57;2.08;;;;;;;;;;6145155;23;20013;-48
2022/04/10 11:15:29;;;;;;;7.65;2.20;;;;;;;;;;6140443;23;20037;-47
2022/04/10 11:17:54;;;;;;;3.58;1.80;;;;;;;;;;6144917;23;20005;-47
2022/04/10 11:20:24;;;;;;;6.35;1.95;;;;;;;;;;6142862;23;20120;-51
2022/04/10 11:22:52;;;;;;;14.18;1.83;;;;;;;;;;6144958;23;20302;-48
2022/04/10 11:25:19;;;;;;;6.25;1.75;;;;;;;;;;6142907;23;20045;-48
2022/04/10 11:27:47;;;;;;;4.07;2.55;;;;;;;;;;6139583;23;20134;-46
2022/04/10 11:30:14;;;;;;;3.47;1.90;;;;;;;;;;6136249;23;20017;-48
2022/04/10 11:32:40;;;;;;;11.45;2.80;;;;;;;;;;6144229;23;20277;-48
2022/04/10 11:35:12;;;;;;;9.15;2.45;;;;;;;;;;6141987;23;20045;-47
2022/04/10 11:37:39;;;;;;;3.20;2.13;;;;;;;;;;6140305;23;20010;-48
2022/04/10 11:40:05;;;;;;;4.40;2.38;;;;;;;;;;6143204;23;20009;-47
2022/04/10 11:42:31;;;;;;;4.97;2.95;;;;;;;;;;6142711;23;20025;-46
2022/04/10 11:44:56;;;;;;;4.25;1.90;;;;;;;;;;6143275;23;20021;-46
2022/04/10 11:47:21;;;;;;;5.97;2.22;;;;;;;;;;6144387;23;20752;-47
2022/04/10 11:49:51;;;;;;;10.00;2.00;;;;;;;;;;6141880;23;20013;-49
2022/04/10 11:52:18;;;;;;;8.15;2.28;;;;;;;;;;6144035;23;20013;-49
2022/04/10 11:54:43;;;;;;;4.13;2.03;;;;;;;;;;6141286;23;20014;-49
2022/04/10 11:57:08;;;;;;;5.35;2.00;;;;;;;;;;6145926;23;20374;-46
2022/04/10 11:59:38;;;;;;;6.50;2.15;;;;;;;;;;6140140;23;20029;-48
2022/04/10 12:02:04;;;;;;;3.85;1.67;;;;;;;;;;6145185;23;20025;-48
2022/04/10 12:04:32;;;;;;;7.40;2.47;;;;;;;;;;6142127;23;20021;-48
2022/04/10 12:07:13;;;;;;;2.58;1.75;;;;;;;;;;6140501;23;20013;-47
2022/04/10 12:09:39;;;;;;;5.78;2.25;;;;;;;;;;6137534;23;20014;-45
2022/04/10 12:12:05;;;;;;;8.00;2.47;;;;;;;;;;6141366;23;20068;-49
2022/04/10 12:14:30;;;;;;;3.25;1.48;;;;;;;;;;6138761;23;20188;-46
2022/04/10 12:16:55;;;;;;;5.45;2.70;;;;;;;;;;6142130;23;20013;-49
2022/04/10 12:19:30;;;;;;;4.45;2.20;;;;;;;;;;6140667;23;20069;-47
2022/04/10 12:21:56;;;;;;;3.08;1.98;;;;;;;;;;6140184;23;20009;-48
2022/04/10 12:24:21;;;;;;;6.50;5.00;;;;;;;;;;6164208;23;20025;-49
2022/04/10 12:26:47;;;;;;;5.50;2.92;;;;;;;;;;6137044;23;20033;-45
2022/04/10 12:29:12;;;;;;;2.67;1.83;;;;;;;;;;6136805;23;20022;-47
2022/04/10 12:31:41;;;;;;;8.18;2.53;;;;;;;;;;6140649;23;20446;-47
2022/04/10 12:34:07;;;;;;;5.90;2.72;;;;;;;;;;6139413;23;20021;-46
2022/04/10 12:36:32;;;;;;;8.70;4.13;;;;;;;;;;6141623;23;20083;-48
2022/04/10 12:39:00;;;;;;;5.57;2.03;;;;;;;;;;6144409;23;20084;-48
2022/04/10 12:41:29;;;;;;;3.85;2.45;;;;;;;;;;6137854;23;20017;-47
2022/04/10 12:44:04;;;;;;;9.02;3.15;;;;;;;;;;6142720;23;20024;-51
2022/04/10 12:46:33;;;;;;;6.97;3.05;;;;;;;;;;6141728;23;20017;-48
2022/04/10 12:49:15;;;;;;;4.15;2.85;;;;;;;;;;6144963;23;20020;-51
2022/04/10 12:51:50;;;;;;;6.38;2.40;;;;;;;;;;6141247;23;20365;-48
2022/04/10 12:54:15;;;;;;;6.07;2.90;;;;;;;;;;6143693;23;20010;-51
2022/04/10 12:56:41;;;;;;;7.40;2.20;;;;;;;;;;6142634;23;20002;-45
2022/04/10 12:59:06;;;;;;;5.65;2.97;;;;;;;;;;6143976;23;20010;-46
2022/04/10 13:01:32;;;;;;;4.47;2.67;;;;;;;;;;6141860;23;20029;-46
2022/04/10 13:03:58;;;;;;;9.70;2.75;;;;;;;;;;6145362;23;20029;-47
2022/04/10 13:06:27;;;;;;;12.23;3.65;;;;;;;;;;6142940;23;20052;-47
2022/04/10 13:08:52;;;;;;;12.18;3.30;;;;;;;;;;6145519;23;20057;-46
2022/04/10 13:11:17;;;;;;;4.20;3.08;;;;;;;;;;6143943;23;20018;-49
2022/04/10 13:13:56;;;;;;;7.80;3.25;;;;;;;;;;6146468;23;20036;-47
2022/04/10 13:16:29;;;;;;;5.80;2.37;;;;;;;;;;6145992;23;20017;-48
2022/04/10 13:18:54;;;;;;;2.72;1.83;;;;;;;;;;6144979;23;20231;-49
2022/04/10 13:21:21;;;;;;;3.55;2.03;;;;;;;;;;6144383;23;20010;-48
2022/04/10 13:23:47;;;;;;;4.78;1.92;;;;;;;;;;6146801;23;20021;-49
2022/04/10 13:26:21;;;;;;;7.57;3.25;;;;;;;;;;6142186;23;20021;-48
2022/04/10 13:28:47;;;;;;;4.50;3.00;;;;;;;;;;6148204;23;20016;-51
2022/04/10 13:31:12;;;;;;;8.95;3.92;;;;;;;;;;6142720;23;20061;-48
2022/04/10 13:33:37;;;;;;;8.00;3.13;;;;;;;;;;6146889;23;20010;-47
2022/04/10 13:36:03;;;;;;;4.85;2.53;;;;;;;;;;6144167;23;20029;-46
2022/04/10 13:38:28;;;;;;;13.80;4.07;;;;;;;;;;6143632;23;20040;-49
2022/04/10 13:40:53;;;;;;;7.07;3.00;;;;;;;;;;6144343;23;20010;-49
2022/04/10 13:43:18;;;;;;;7.93;2.85;;;;;;;;;;6146269;23;20014;-49
2022/04/10 13:45:44;;;;;;;3.40;2.10;;;;;;;;;;6145515;23;20025;-47
2022/04/10 13:48:09;;;;;;;7.18;2.67;;;;;;;;;;6145443;23;20352;-48
2022/04/10 13:50:35;;;;;;;7.45;2.50;;;;;;;;;;6145742;23;20531;-48
2022/04/10 13:53:01;;;;;;;9.68;2.70;;;;;;;;;;6142968;23;20041;-49
2022/04/10 13:55:26;;;;;;;7.03;2.85;;;;;;;;;;6145589;23;20010;-48
2022/04/10 13:57:52;;;;;;;3.13;2.03;;;;;;;;;;6145687;23;20040;-48
2022/04/10 14:00:17;;;;;;;3.95;2.05;;;;;;;;;;6142871;23;20013;-47
2022/04/10 14:02:42;;;;;;;5.38;2.60;;;;;;;;;;6145231;23;20014;-46
2022/04/10 14:05:08;;;;;;;5.35;3.38;;;;;;;;;;6143708;23;20032;-45
2022/04/10 14:07:34;;;;;;;8.80;2.78;;;;;;;;;;6143765;23;20040;-47
2022/04/10 14:09:59;;;;;;;5.68;2.67;;;;;;;;;;6145721;23;20009;-46
2022/04/10 14:12:24;;;;;;;4.47;2.80;;;;;;;;;;6142496;23;20028;-50
2022/04/10 14:14:50;;;;;;;5.88;2.45;;;;;;;;;;6146410;23;20089;-49
2022/04/10 14:17:16;;;;;;;7.68;2.72;;;;;;;;;;6144447;23;20017;-47
2022/04/10 14:19:41;;;;;;;6.60;3.00;;;;;;;;;;6147034;23;20017;-47
2022/04/10 14:22:07;;;;;;;7.32;3.13;;;;;;;;;;6144884;23;20013;-49
2022/04/10 14:24:33;;;;;;;4.55;3.17;;;;;;;;;;6146267;23;20080;-48
2022/04/10 14:26:58;;;;;;;8.65;2.85;;;;;;;;;;6143004;23;20110;-47
2022/04/10 14:29:24;;;;;;;7.20;3.50;;;;;;;;;;6139454;23;20040;-48
2022/04/10 14:31:49;;;;;;;5.75;1.67;;;;;;;;;;6144811;23;20021;-46
2022/04/10 14:34:17;;;;;;;6.05;2.65;;;;;;;;;;6140883;23;20105;-47
2022/04/10 14:36:42;;;;;;;4.47;1.65;;;;;;;;;;6142855;23;20040;-47